»·PEaware :: FFT2126 KSAN-KLAS

FFT2126 :: KSAN-KLAS

FLIGHT INFORMATION

Flight Status: Arrived
Operator:
Frontier Airlines
More flights by this operator :: More flights under this callsign
Pilot: Larry J. (13694)
Aircraft: Unknown
(A21N)
More flights by this aircraft type
Origin: KSAN San Diego Intl-Lindbergh
United States
Destination: KLAS McCarran Intl
United States
More flights between these airports :: More routes between these airports
Route: PADRZ2 CHKNN SEBBY YELAH MISEN KEPEC6
File this flight plan on PilotEdge
Remarks:
Altitude:
(Current/Filed)
35,000ft
Speed:
(Current/Filed)
450kts
Departed: 17-Nov-20 02:59 PM
Arrived: 17-Nov-20 03:58 PM
Distance/Time
Traveled:
225nm/0:59
Distance/Time
To Go:
Arrived

Flight Plot

Page will automatically refresh every two minutes.

Flight plan parsing failed; only flown route is shown


Map Options




Map Legend


Flown Route
Filed Route
Departure Airport
Arrival Airport
Navaid (VOR, NDB)
Fix

Horizontal Profiles

Position Reports

Time Latitude Longitude Heading Altitude Ground
Speed
17-Nov-20 14:34 32.734480 -117.203489 234 23ft 0kts
17-Nov-20 14:35 32.734480 -117.203489 234 23ft 0kts
17-Nov-20 14:36 32.734480 -117.203489 234 23ft 0kts
17-Nov-20 14:37 32.734480 -117.203489 234 23ft 0kts
17-Nov-20 14:38 32.734480 -117.203489 234 23ft 0kts
17-Nov-20 14:39 32.734480 -117.203489 234 23ft 0kts
17-Nov-20 14:40 32.734480 -117.203489 234 23ft 0kts
17-Nov-20 14:41 32.734480 -117.203489 234 23ft 0kts
17-Nov-20 14:42 32.734480 -117.203489 234 23ft 0kts
17-Nov-20 14:43 32.734480 -117.203489 234 23ft 0kts
17-Nov-20 14:44 32.734480 -117.203489 234 23ft 0kts
17-Nov-20 14:45 32.734480 -117.203489 234 23ft 0kts
17-Nov-20 14:46 32.734731 -117.203143 202 23ft 2kts
17-Nov-20 14:47 32.735148 -117.203371 103 23ft 0kts
17-Nov-20 14:48 32.735148 -117.203371 103 23ft 0kts
17-Nov-20 14:49 32.735073 -117.203045 101 23ft 6kts
17-Nov-20 14:50 32.735123 -117.200360 105 25ft 8kts
17-Nov-20 14:51 32.734512 -117.197855 106 27ft 10kts
17-Nov-20 14:52 32.733432 -117.193398 106 24ft 14kts
17-Nov-20 14:53 32.732762 -117.190632 105 25ft 7kts
17-Nov-20 14:54 32.731652 -117.186044 104 25ft 17kts
17-Nov-20 14:56 32.730323 -117.180568 105 20ft 15kts
17-Nov-20 14:57 32.729504 -117.177120 96 19ft 1kts
17-Nov-20 14:58 32.729674 -117.176203 69 21ft 7kts
17-Nov-20 14:59 32.735515 -117.197398 286 577ft 156kts
17-Nov-20 15:00 32.761218 -117.250695 303 2562ft 261kts
17-Nov-20 15:01 32.803900 -117.322960 301 7062ft 276kts
17-Nov-20 15:02 32.850970 -117.397172 301 7957ft 284kts
17-Nov-20 15:03 32.898663 -117.471698 301 8007ft 283kts
17-Nov-20 15:04 32.946438 -117.546079 301 8011ft 283kts
17-Nov-20 15:05 32.994222 -117.620680 301 8172ft 289kts
17-Nov-20 15:06 33.045163 -117.699359 306 10552ft 350kts
17-Nov-20 15:07 33.120382 -117.784561 313 13735ft 383kts
17-Nov-20 15:08 33.202294 -117.868268 315 15767ft 394kts
17-Nov-20 15:09 33.287760 -117.951661 315 18478ft 399kts
17-Nov-20 15:09 33.359546 -118.022139 315 20634ft 406kts
17-Nov-20 15:11 33.462697 -118.123849 314 23103ft 418kts
17-Nov-20 15:12 33.553865 -118.212961 318 24889ft 434kts
17-Nov-20 15:13 33.663073 -118.281736 327 26547ft 450kts
17-Nov-20 15:13 33.762804 -118.321682 352 27701ft 479kts
17-Nov-20 15:14 33.886983 -118.261130 42 29054ft 519kts
17-Nov-20 15:16 33.956210 -118.078376 72 30952ft 520kts
17-Nov-20 15:16 34.002747 -117.944633 61 32252ft 518kts
17-Nov-20 15:17 34.077655 -117.798052 51 33777ft 512kts
17-Nov-20 15:18 34.166590 -117.666048 47 34911ft 506kts
17-Nov-20 15:19 34.257118 -117.534335 47 34958ft 512kts
17-Nov-20 15:20 34.348031 -117.400764 48 35016ft 518kts
17-Nov-20 15:21 34.439206 -117.265883 48 35012ft 519kts
17-Nov-20 15:22 34.530249 -117.130577 48 35016ft 519kts
17-Nov-20 15:23 34.620777 -116.995473 49 34698ft 508kts
17-Nov-20 15:24 34.707451 -116.865595 49 32470ft 458kts
17-Nov-20 15:25 34.785501 -116.748287 49 29849ft 439kts
17-Nov-20 15:26 34.865222 -116.639953 37 27199ft 420kts
17-Nov-20 15:27 34.953326 -116.551604 35 24715ft 405kts
17-Nov-20 15:28 35.039481 -116.466569 36 23786ft 392kts
17-Nov-20 15:29 35.120058 -116.378997 43 21255ft 381kts
17-Nov-20 15:30 35.193989 -116.288346 45 18785ft 370kts
17-Nov-20 15:31 35.264874 -116.199974 46 16331ft 358kts
17-Nov-20 15:32 35.333169 -116.114223 46 15051ft 347kts
17-Nov-20 15:33 35.400268 -116.029652 46 14998ft 347kts
17-Nov-20 15:34 35.467397 -115.944769 46 14976ft 347kts
17-Nov-20 15:35 35.533796 -115.860554 47 13352ft 337kts
17-Nov-20 15:36 35.597871 -115.779080 47 12972ft 331kts
17-Nov-20 15:37 35.661679 -115.697713 47 12967ft 331kts
17-Nov-20 15:38 35.725430 -115.616256 46 12941ft 331kts
17-Nov-20 15:39 35.810241 -115.580410 2 12956ft 327kts
17-Nov-20 15:40 35.900374 -115.570937 0 12953ft 326kts
17-Nov-20 15:41 35.982158 -115.530766 57 11832ft 326kts
17-Nov-20 15:42 36.013056 -115.431037 73 10959ft 308kts
17-Nov-20 15:43 36.022545 -115.328282 94 10807ft 302kts
17-Nov-20 15:44 36.019866 -115.236703 99 10005ft 255kts
17-Nov-20 15:45 36.014318 -115.153117 99 8531ft 243kts
17-Nov-20 15:46 36.009077 -115.074066 99 7951ft 228kts
17-Nov-20 15:47 36.003848 -114.996310 98 7149ft 234kts
17-Nov-20 15:48 35.997564 -114.920040 98 6011ft 192kts
17-Nov-20 15:49 35.994985 -114.853791 93 5480ft 192kts
17-Nov-20 15:50 36.026725 -114.812897 359 5554ft 202kts
17-Nov-20 15:51 36.072042 -114.842603 282 4970ft 192kts
17-Nov-20 15:52 36.068676 -114.905473 277 4314ft 183kts
17-Nov-20 15:53 36.074162 -114.967415 273 3611ft 178kts
17-Nov-20 15:54 36.073877 -115.024888 269 3718ft 154kts
17-Nov-20 15:55 36.073768 -115.075320 269 2880ft 150kts
17-Nov-20 15:56 36.073693 -115.126442 269 2127ft 148kts
17-Nov-20 15:57 36.074445 -115.149956 299 2133ft 11kts
17-Nov-20 15:58 36.074902 -115.150847 312 2139ft 1kts
17-Nov-20 15:59 36.077536 -115.152625 333 2155ft 0kts
17-Nov-20 16:00 36.077536 -115.152625 333 2155ft 0kts
17-Nov-20 16:01 36.078662 -115.149207 98 2141ft 19kts
17-Nov-20 16:02 36.078266 -115.141241 89 2108ft 26kts
17-Nov-20 16:03 36.080343 -115.133740 1 2083ft 21kts
17-Nov-20 16:04 36.082205 -115.135856 303 2083ft 0kts
17-Nov-20 16:05 36.082205 -115.135856 303 2083ft 0kts
17-Nov-20 16:06 36.082205 -115.135856 303 2083ft 0kts
17-Nov-20 16:07 36.082205 -115.135856 303 2083ft 0kts
17-Nov-20 16:08 36.082205 -115.135856 303 2083ft 0kts
17-Nov-20 16:09 36.082205 -115.135856 303 2083ft 0kts

Navigation Log

Ident Type
Flight plan parsing failed, navigation log unavailable